createdAt,value
2023-01-13T00:01:29.825Z,5.31
2023-01-13T00:03:58.049Z,5.29
2023-01-13T00:06:26.350Z,5.30
2023-01-13T00:08:55.064Z,5.32
2023-01-13T00:11:24.549Z,5.27
2023-01-13T00:13:52.554Z,5.29
2023-01-13T00:16:21.189Z,5.26
2023-01-13T00:18:51.283Z,5.26
2023-01-13T00:21:24.697Z,5.22
2023-01-13T00:23:54.545Z,5.18
2023-01-13T00:26:27.877Z,5.12
2023-01-13T00:28:58.637Z,5.12
2023-01-13T00:31:28.542Z,5.11
2023-01-13T00:33:57.642Z,5.11
2023-01-13T00:36:25.893Z,5.15
2023-01-13T00:38:54.760Z,5.13
2023-01-13T00:41:24.751Z,5.15
2023-01-13T00:43:52.640Z,5.13
2023-01-13T00:46:22.281Z,5.11
2023-01-13T00:48:51.712Z,5.14
2023-01-13T00:51:21.671Z,5.17
2023-01-13T00:53:51.330Z,5.18
2023-01-13T00:56:38.647Z,5.13
2023-01-13T00:59:12.508Z,5.13
2023-01-13T01:01:41.279Z,5.13
2023-01-13T01:04:09.518Z,5.14
2023-01-13T01:06:38.244Z,5.07
2023-01-13T01:09:06.661Z,5.09
2023-01-13T01:11:34.653Z,5.09
2023-01-13T01:14:03.944Z,5.03
2023-01-13T01:16:34.042Z,4.96
2023-01-13T01:19:02.564Z,4.97
2023-01-13T01:21:31.653Z,4.98
2023-01-13T01:24:04.263Z,4.95
2023-01-13T01:26:32.361Z,4.92
2023-01-13T01:29:02.279Z,4.92
2023-01-13T01:31:32.896Z,4.92
2023-01-13T01:34:01.747Z,4.93
2023-01-13T01:36:30.393Z,4.92
2023-01-13T01:38:59.978Z,4.88
2023-01-13T01:41:32.582Z,4.84
2023-01-13T01:44:07.274Z,4.75
2023-01-13T01:46:38.234Z,4.72
2023-01-13T01:49:20.623Z,4.72
2023-01-13T01:51:54.234Z,4.65
2023-01-13T01:54:28.603Z,4.66
2023-01-13T01:56:56.691Z,4.69
2023-01-13T01:59:30.068Z,4.66
2023-01-13T02:01:58.832Z,4.61
2023-01-13T02:04:31.824Z,4.61
2023-01-13T02:07:01.452Z,4.62
2023-01-13T02:09:30.459Z,4.59
2023-01-13T02:12:17.324Z,4.56
2023-01-13T02:14:45.914Z,4.53
2023-01-13T02:17:37.806Z,4.50
2023-01-13T02:20:21.448Z,4.52
2023-01-13T02:22:58.536Z,4.56
2023-01-13T02:25:44.290Z,4.59
2023-01-13T02:29:04.575Z,4.63
2023-01-13T02:31:44.643Z,4.66
2023-01-13T02:34:30.012Z,4.68
2023-01-13T02:37:10.279Z,4.72
2023-01-13T02:40:25.178Z,4.74
2023-01-13T02:43:31.026Z,4.80
2023-01-13T02:46:28.253Z,4.84
2023-01-13T02:49:00.414Z,4.89
2023-01-13T02:51:31.445Z,4.87
2023-01-13T02:54:12.646Z,4.85
2023-01-13T02:56:42.923Z,4.89
2023-01-13T02:59:12.447Z,4.90
2023-01-13T03:01:42.462Z,4.87
2023-01-13T03:04:45.917Z,4.82
2023-01-13T03:07:57.120Z,4.80
2023-01-13T03:10:33.462Z,4.82
2023-01-13T03:13:25.934Z,4.83
2023-01-13T03:16:19.251Z,4.87
2023-01-13T03:19:12.263Z,4.89
2023-01-13T03:21:44.429Z,4.89
2023-01-13T03:24:21.270Z,4.87
2023-01-13T03:26:56.755Z,4.90
2023-01-13T03:29:30.992Z,4.85
2023-01-13T03:32:06.847Z,4.80
2023-01-13T03:34:41.008Z,4.77
2023-01-13T03:37:10.506Z,4.73
2023-01-13T03:39:44.120Z,4.75
2023-01-13T03:42:18.810Z,4.74
2023-01-13T03:45:10.624Z,4.74
2023-01-13T03:47:53.532Z,4.74
2023-01-13T03:50:31.082Z,4.73
2023-01-13T03:53:28.224Z,4.68
2023-01-13T03:56:01.411Z,4.66
2023-01-13T03:58:33.741Z,4.65
2023-01-13T04:01:25.376Z,4.63
2023-01-13T04:04:13.932Z,4.61
2023-01-13T04:06:55.240Z,4.59
2023-01-13T04:09:32.675Z,4.56
2023-01-13T04:12:08.904Z,4.53
2023-01-13T04:14:38.040Z,4.54
2023-01-13T04:17:06.108Z,4.57
2023-01-13T04:19:34.085Z,4.60
2023-01-13T04:22:02.284Z,4.64
2023-01-13T04:24:30.211Z,4.61
2023-01-13T04:26:58.203Z,4.56
2023-01-13T04:29:26.547Z,4.57
2023-01-13T04:31:54.815Z,4.57
2023-01-13T04:34:22.852Z,4.55
2023-01-13T04:36:50.709Z,4.49
2023-01-13T04:39:18.684Z,4.45
2023-01-13T04:41:58.447Z,4.35
2023-01-13T04:44:27.416Z,4.27
2023-01-13T04:46:55.614Z,4.29
2023-01-13T04:49:23.588Z,4.22
2023-01-13T04:51:51.492Z,4.13
2023-01-13T04:54:19.988Z,4.06
2023-01-13T04:56:48.023Z,4.05
2023-01-13T04:59:15.970Z,4.08
2023-01-13T05:01:44.054Z,4.03
2023-01-13T05:04:12.074Z,3.97
2023-01-13T05:06:39.963Z,3.96
2023-01-13T05:09:07.870Z,3.92
2023-01-13T05:11:54.893Z,3.94
2023-01-13T05:14:41.470Z,3.94
2023-01-13T05:17:10.856Z,3.90
2023-01-13T05:19:41.733Z,3.86
2023-01-13T05:22:28.376Z,3.84
2023-01-13T05:25:15.174Z,3.79
2023-01-13T05:27:43.086Z,3.74
2023-01-13T05:30:11.370Z,3.73
2023-01-13T05:32:39.633Z,3.75
2023-01-13T05:35:08.033Z,3.77
2023-01-13T05:37:36.406Z,3.80
2023-01-13T05:40:26.533Z,3.84
2023-01-13T05:43:25.394Z,3.84
2023-01-13T05:45:58.024Z,3.83
2023-01-13T05:48:31.741Z,3.86
2023-01-13T05:51:00.268Z,3.86
2023-01-13T05:53:29.290Z,3.90
2023-01-13T05:55:57.284Z,3.94
2023-01-13T05:58:27.222Z,4.02
2023-01-13T06:01:00.813Z,4.04
2023-01-13T06:03:29.087Z,4.06
2023-01-13T06:05:59.582Z,4.09
2023-01-13T06:08:28.202Z,4.14
2023-01-13T06:10:56.525Z,4.14
2023-01-13T06:13:25.535Z,4.13
2023-01-13T06:15:58.266Z,4.13
2023-01-13T06:18:28.082Z,4.19
2023-01-13T06:20:56.317Z,4.24
2023-01-13T06:23:24.781Z,4.28
2023-01-13T06:26:05.501Z,4.34
2023-01-13T06:28:33.467Z,4.36
2023-01-13T06:31:07.438Z,4.39
2023-01-13T06:33:58.651Z,4.37
2023-01-13T06:36:32.450Z,4.40
2023-01-13T06:39:02.296Z,4.41
2023-01-13T06:41:51.917Z,4.41
2023-01-13T06:44:21.918Z,4.43
2023-01-13T06:46:51.704Z,4.44
2023-01-13T06:49:21.541Z,4.44
2023-01-13T06:51:50.167Z,4.44
2023-01-13T06:54:18.139Z,4.48
2023-01-13T06:56:46.200Z,4.53
2023-01-13T06:59:14.127Z,4.52
2023-01-13T07:01:44.993Z,4.52
2023-01-13T07:04:13.811Z,4.52
2023-01-13T07:06:41.687Z,4.53
2023-01-13T07:09:09.673Z,4.51
2023-01-13T07:11:37.630Z,4.49
2023-01-13T07:14:24.073Z,4.51
2023-01-13T07:16:53.754Z,4.55
2023-01-13T07:19:24.041Z,4.56
2023-01-13T07:21:52.776Z,4.63
2023-01-13T07:24:22.496Z,4.67
2023-01-13T07:26:51.949Z,4.70
2023-01-13T07:29:20.128Z,4.73
2023-01-13T07:31:50.121Z,4.78
2023-01-13T07:34:18.511Z,4.79
2023-01-13T07:36:46.426Z,4.82
2023-01-13T07:39:17.414Z,4.86
2023-01-13T07:42:03.644Z,4.91
2023-01-13T07:44:31.619Z,4.95
2023-01-13T07:46:59.575Z,5.04
2023-01-13T07:49:27.576Z,5.07
2023-01-13T07:51:55.610Z,5.02
2023-01-13T07:54:35.112Z,5.01
2023-01-13T07:57:08.635Z,4.99
2023-01-13T07:59:37.033Z,5.00
2023-01-13T08:02:05.220Z,5.01
2023-01-13T08:04:34.569Z,5.01
2023-01-13T08:07:02.633Z,5.02
2023-01-13T08:09:30.488Z,5.09
2023-01-13T08:12:17.084Z,5.15
2023-01-13T08:14:54.453Z,5.15
2023-01-13T08:17:22.525Z,5.16
2023-01-13T08:19:53.503Z,5.18
2023-01-13T08:22:22.805Z,5.20
2023-01-13T08:24:50.761Z,5.19
2023-01-13T08:27:20.635Z,5.26
2023-01-13T08:29:48.561Z,5.29
2023-01-13T08:32:16.459Z,5.30
2023-01-13T08:34:44.402Z,5.30
2023-01-13T08:37:12.455Z,5.32
2023-01-13T08:39:40.374Z,5.38
2023-01-13T08:42:08.296Z,5.41
2023-01-13T08:44:36.235Z,5.46
2023-01-13T08:47:04.755Z,5.47
2023-01-13T08:49:35.634Z,5.51
2023-01-13T08:52:04.159Z,5.49
2023-01-13T08:54:31.965Z,5.45
2023-01-13T08:57:00.000Z,5.43
2023-01-13T08:59:28.069Z,5.48
2023-01-13T09:01:59.844Z,5.51
2023-01-13T09:04:29.269Z,5.52
2023-01-13T09:06:57.882Z,5.57
2023-01-13T09:09:27.816Z,5.57
2023-01-13T09:12:14.270Z,5.65
2023-01-13T09:14:42.159Z,5.70
2023-01-13T09:17:10.152Z,5.71
2023-01-13T09:19:38.114Z,5.74
2023-01-13T09:22:06.113Z,5.82
2023-01-13T09:24:34.102Z,5.87
2023-01-13T09:27:02.031Z,5.89
2023-01-13T09:29:30.113Z,5.96
2023-01-13T09:31:58.253Z,6.00
2023-01-13T09:34:44.836Z,6.05
2023-01-13T09:37:12.825Z,6.13
2023-01-13T09:39:40.790Z,6.21
2023-01-13T09:43:01.329Z,6.19
2023-01-13T09:45:58.009Z,6.25
2023-01-13T09:48:28.983Z,6.30
2023-01-13T09:50:56.861Z,6.30
2023-01-13T09:53:30.058Z,6.29
2023-01-13T09:55:58.084Z,6.32
2023-01-13T09:58:27.222Z,6.37
2023-01-13T10:01:26.290Z,6.35
2023-01-13T10:03:54.496Z,6.37
2023-01-13T10:06:44.264Z,6.38
2023-01-13T10:09:21.284Z,6.48
2023-01-13T10:12:09.467Z,6.54
2023-01-13T10:14:54.664Z,6.65
2023-01-13T10:17:40.122Z,6.73
2023-01-13T10:20:11.168Z,6.80
2023-01-13T10:22:38.948Z,6.80
2023-01-13T10:25:20.982Z,6.81
2023-01-13T10:27:51.711Z,6.86
2023-01-13T10:30:31.508Z,6.88
2023-01-13T10:33:17.763Z,6.85
2023-01-13T10:35:55.017Z,6.78
2023-01-13T10:38:25.313Z,6.80
2023-01-13T10:40:57.706Z,6.83
2023-01-13T10:43:26.488Z,6.83
2023-01-13T10:46:10.214Z,6.79
2023-01-13T10:48:44.004Z,6.81
2023-01-13T10:51:20.469Z,6.82
2023-01-13T10:53:51.203Z,6.83
2023-01-13T10:56:22.330Z,6.83
2023-01-13T10:58:50.348Z,6.87
2023-01-13T11:01:30.551Z,6.88
2023-01-13T11:03:58.747Z,6.88
2023-01-13T11:06:29.645Z,6.92
2023-01-13T11:08:58.630Z,6.98
2023-01-13T11:11:28.679Z,7.01
2023-01-13T11:14:21.351Z,7.06
2023-01-13T11:16:54.001Z,7.10
2023-01-13T11:19:25.173Z,7.11
2023-01-13T11:21:56.403Z,7.14
2023-01-13T11:25:03.784Z,7.20
2023-01-13T11:27:55.647Z,7.25
2023-01-13T11:30:26.560Z,7.23
2023-01-13T11:33:09.741Z,7.26
2023-01-13T11:36:02.682Z,7.30
2023-01-13T11:38:42.391Z,7.33
2023-01-13T11:41:29.025Z,7.31
2023-01-13T11:44:15.624Z,7.31
2023-01-13T11:46:43.715Z,7.29
2023-01-13T11:49:26.361Z,7.26
2023-01-13T11:52:06.493Z,7.24
2023-01-13T11:55:02.970Z,7.26
2023-01-13T11:57:54.722Z,7.30
2023-01-13T12:00:41.525Z,7.31
2023-01-13T12:03:33.732Z,7.38
2023-01-13T12:06:37.894Z,7.41
2023-01-13T12:09:21.470Z,7.37
2023-01-13T12:12:20.002Z,7.34
2023-01-13T12:15:16.141Z,7.33
2023-01-13T12:17:58.369Z,7.32
2023-01-13T12:20:38.314Z,7.33
2023-01-13T12:23:15.867Z,7.33
2023-01-13T12:25:52.812Z,7.35
2023-01-13T12:28:28.618Z,7.44
2023-01-13T12:31:02.625Z,7.50
2023-01-13T12:33:55.838Z,7.52
2023-01-13T12:37:01.318Z,7.50
2023-01-13T12:39:47.205Z,7.51
2023-01-13T12:42:43.298Z,7.56
2023-01-13T12:45:11.183Z,7.53
2023-01-13T12:47:43.609Z,7.52
2023-01-13T12:50:26.771Z,7.55
2023-01-13T12:53:32.382Z,7.56
2023-01-13T12:56:26.793Z,7.58
2023-01-13T12:59:19.162Z,7.61
2023-01-13T13:01:49.945Z,7.63
2023-01-13T13:04:41.787Z,7.65
2023-01-13T13:07:23.206Z,7.60
2023-01-13T13:10:02.894Z,7.58
2023-01-13T13:12:49.175Z,7.59
2023-01-13T13:15:21.447Z,7.61
2023-01-13T13:18:19.551Z,7.66
2023-01-13T13:21:04.740Z,7.66
2023-01-13T13:23:56.533Z,7.65
2023-01-13T13:26:38.104Z,7.62
2023-01-13T13:29:24.318Z,7.64
2023-01-13T13:32:09.061Z,7.61
2023-01-13T13:34:48.996Z,7.60
2023-01-13T13:38:08.075Z,7.62
2023-01-13T13:41:06.167Z,7.62
2023-01-13T13:44:04.172Z,7.59
2023-01-13T13:46:47.488Z,7.59
2023-01-13T13:49:22.045Z,7.62
2023-01-13T13:52:02.938Z,7.63
2023-01-13T13:54:31.991Z,7.63
2023-01-13T13:57:01.165Z,7.64
2023-01-13T13:59:30.980Z,7.68
2023-01-13T14:02:02.207Z,7.65
2023-01-13T14:04:36.946Z,7.64
2023-01-13T14:07:41.711Z,7.60
2023-01-13T14:10:24.888Z,7.49
2023-01-13T14:12:52.936Z,7.44
2023-01-13T14:15:27.234Z,7.39
2023-01-13T14:17:55.311Z,7.37
2023-01-13T14:20:23.877Z,7.29
2023-01-13T14:22:54.043Z,7.21
2023-01-13T14:25:30.591Z,7.12
2023-01-13T14:28:03.797Z,7.05
2023-01-13T14:30:33.620Z,6.94
2023-01-13T14:33:02.421Z,6.86
2023-01-13T14:35:30.347Z,6.79
2023-01-13T14:38:02.762Z,6.74
2023-01-13T14:40:35.923Z,6.60
2023-01-13T14:43:12.854Z,6.54
2023-01-13T14:45:58.804Z,6.50
2023-01-13T14:48:36.024Z,6.42
2023-01-13T14:51:09.825Z,6.39
2023-01-13T14:53:46.908Z,6.32
2023-01-13T14:56:36.825Z,6.22
2023-01-13T14:59:33.467Z,6.16
2023-01-13T15:02:22.769Z,6.12
2023-01-13T15:04:54.217Z,6.07
2023-01-13T15:07:28.022Z,6.04
2023-01-13T15:10:00.301Z,6.02
2023-01-13T15:12:39.749Z,5.96
2023-01-13T15:15:27.052Z,5.90
2023-01-13T15:17:56.655Z,5.84
2023-01-13T15:20:25.520Z,5.81
2023-01-13T15:22:55.255Z,5.75
2023-01-13T15:25:23.409Z,5.71
2023-01-13T15:27:52.844Z,5.68
2023-01-13T15:30:26.607Z,5.66
2023-01-13T15:32:57.074Z,5.64
2023-01-13T15:35:28.109Z,5.59
2023-01-13T15:37:57.266Z,5.57
2023-01-13T15:40:33.153Z,5.59
2023-01-13T15:43:19.912Z,5.58
2023-01-13T15:46:06.689Z,5.55
2023-01-13T15:48:35.782Z,5.51
2023-01-13T15:51:04.864Z,5.51
2023-01-13T15:53:36.992Z,5.55
2023-01-13T15:56:12.922Z,5.53
2023-01-13T15:58:41.268Z,5.53
2023-01-13T16:01:12.839Z,5.52
2023-01-13T16:03:40.883Z,5.52
2023-01-13T16:06:16.927Z,5.52
2023-01-13T16:08:45.072Z,5.51
2023-01-13T16:11:13.494Z,5.55
2023-01-13T16:13:41.486Z,5.55
2023-01-13T16:16:23.054Z,5.58
2023-01-13T16:18:52.005Z,5.59
2023-01-13T16:21:21.575Z,5.58
2023-01-13T16:23:51.374Z,5.60
2023-01-13T16:26:25.417Z,5.59
2023-01-13T16:28:56.178Z,5.58
2023-01-13T16:31:26.940Z,5.59
2023-01-13T16:33:55.402Z,5.61
2023-01-13T16:36:23.940Z,5.63
2023-01-13T16:38:53.737Z,5.62
2023-01-13T16:41:25.208Z,5.59
2023-01-13T16:43:53.500Z,5.60
2023-01-13T16:46:24.633Z,5.58
2023-01-13T16:48:54.044Z,5.56
2023-01-13T16:51:23.881Z,5.49
2023-01-13T16:53:51.927Z,5.45
2023-01-13T16:56:25.156Z,5.40
2023-01-13T16:58:55.345Z,5.39
2023-01-13T17:01:30.400Z,5.39
2023-01-13T17:03:59.681Z,5.37
2023-01-13T17:06:35.905Z,5.35
2023-01-13T17:09:24.850Z,5.35
2023-01-13T17:11:53.535Z,5.35
2023-01-13T17:14:23.680Z,5.38
2023-01-13T17:16:54.878Z,5.38
2023-01-13T17:19:24.092Z,5.38
2023-01-13T17:21:52.242Z,5.39
2023-01-13T17:24:21.131Z,5.41
2023-01-13T17:26:50.972Z,5.38
2023-01-13T17:29:22.676Z,5.39
2023-01-13T17:31:51.844Z,5.39
2023-01-13T17:34:21.308Z,5.40
2023-01-13T17:36:49.444Z,5.41
2023-01-13T17:39:20.298Z,5.45
2023-01-13T17:41:48.322Z,5.42
2023-01-13T17:44:18.895Z,5.40
2023-01-13T17:46:47.666Z,5.36
2023-01-13T17:49:18.600Z,5.30
2023-01-13T17:51:48.444Z,5.28
2023-01-13T17:54:17.133Z,5.29
2023-01-13T17:56:45.228Z,5.30
2023-01-13T17:59:19.414Z,5.28
2023-01-13T18:01:47.751Z,5.25
2023-01-13T18:04:19.151Z,5.22
2023-01-13T18:06:48.812Z,5.19
2023-01-13T18:09:17.264Z,5.18
2023-01-13T18:11:47.236Z,5.14
2023-01-13T18:14:16.600Z,5.13
2023-01-13T18:16:46.155Z,5.15
2023-01-13T18:19:32.704Z,5.13
2023-01-13T18:22:20.050Z,5.13
2023-01-13T18:25:06.633Z,5.12
2023-01-13T18:27:38.268Z,5.11
2023-01-13T18:30:07.122Z,5.12
2023-01-13T18:32:36.064Z,5.11
2023-01-13T18:35:10.119Z,5.09
2023-01-13T18:37:43.154Z,5.11
2023-01-13T18:40:13.951Z,5.07
2023-01-13T18:42:55.085Z,5.04
2023-01-13T18:45:29.274Z,5.00
2023-01-13T18:48:00.301Z,5.01
2023-01-13T18:50:31.978Z,5.02
2023-01-13T18:53:01.111Z,5.05
2023-01-13T18:55:29.249Z,5.07
2023-01-13T18:57:57.592Z,5.10
2023-01-13T19:00:27.448Z,5.08
2023-01-13T19:05:36.338Z,5.09
2023-01-13T19:08:06.075Z,5.09
2023-01-13T19:10:34.171Z,5.08
2023-01-13T19:13:02.354Z,5.08
2023-01-13T19:15:30.976Z,5.08
2023-01-13T19:17:59.419Z,5.04
2023-01-13T19:20:29.857Z,5.03
2023-01-13T19:22:59.941Z,5.01
2023-01-13T19:25:27.877Z,5.01
2023-01-13T19:27:55.998Z,4.99
2023-01-13T19:30:24.155Z,4.97
2023-01-13T19:32:52.164Z,4.94
2023-01-13T19:35:20.291Z,4.89
2023-01-13T19:37:48.267Z,4.81
2023-01-13T19:40:16.478Z,4.79
2023-01-13T19:43:03.025Z,4.76
2023-01-13T19:45:33.973Z,4.70
2023-01-13T19:48:02.647Z,4.61
2023-01-13T19:50:31.213Z,4.59
2023-01-13T19:52:59.399Z,4.55
2023-01-13T19:55:28.131Z,4.47
2023-01-13T19:57:56.113Z,4.42
2023-01-13T20:00:24.209Z,4.42
2023-01-13T20:02:53.414Z,4.41
2023-01-13T20:05:24.397Z,4.41
2023-01-13T20:07:52.961Z,4.36
2023-01-13T20:10:22.869Z,4.29
2023-01-13T20:12:51.418Z,4.28
2023-01-13T20:15:19.485Z,4.26
2023-01-13T20:17:47.923Z,4.20
2023-01-13T20:20:16.940Z,4.17
2023-01-13T20:22:44.914Z,4.17
2023-01-13T20:25:17.049Z,4.19
2023-01-13T20:27:47.928Z,4.17
2023-01-13T20:30:16.168Z,4.15
2023-01-13T20:32:44.577Z,4.14
2023-01-13T20:35:13.880Z,4.16
2023-01-13T20:37:45.721Z,4.14
2023-01-13T20:40:16.249Z,4.05
2023-01-13T20:42:48.156Z,3.98
2023-01-13T20:45:20.595Z,3.97
2023-01-13T20:47:51.590Z,3.91
2023-01-13T20:50:19.832Z,3.91
2023-01-13T20:52:49.034Z,3.89
2023-01-13T20:55:17.218Z,3.89
2023-01-13T20:57:50.315Z,3.90
2023-01-13T21:00:19.279Z,3.92
2023-01-13T21:02:47.359Z,3.87
2023-01-13T21:05:15.546Z,3.81
2023-01-13T21:07:45.392Z,3.73
2023-01-13T21:10:13.509Z,3.72
2023-01-13T21:13:00.359Z,3.67
2023-01-13T21:15:28.620Z,3.62
2023-01-13T21:18:21.143Z,3.60
2023-01-13T21:21:11.803Z,3.62
2023-01-13T21:23:42.543Z,3.64
2023-01-13T21:26:12.062Z,3.65
2023-01-13T21:28:40.135Z,3.70
2023-01-13T21:31:09.639Z,3.69
2023-01-13T21:33:38.328Z,3.66
2023-01-13T21:36:08.071Z,3.63
2023-01-13T21:38:36.319Z,3.65
2023-01-13T21:41:07.963Z,3.65
2023-01-13T21:43:56.034Z,3.62
2023-01-13T21:46:45.890Z,3.65
2023-01-13T21:49:14.020Z,3.68
2023-01-13T21:51:44.374Z,3.64
2023-01-13T21:54:13.066Z,3.59
2023-01-13T21:56:40.940Z,3.56
2023-01-13T21:59:08.863Z,3.51
2023-01-13T22:01:36.941Z,3.53
2023-01-13T22:04:24.859Z,3.55
2023-01-13T22:06:52.791Z,3.58
2023-01-13T22:09:20.873Z,3.65
2023-01-13T22:11:48.972Z,3.64
2023-01-13T22:14:17.082Z,3.62
2023-01-13T22:16:49.812Z,3.62
2023-01-13T22:19:18.700Z,3.65
2023-01-13T22:21:46.743Z,3.73
2023-01-13T22:24:14.738Z,3.70
2023-01-13T22:26:42.785Z,3.71
2023-01-13T22:29:11.102Z,3.72
2023-01-13T22:31:39.523Z,3.74
2023-01-13T22:34:07.596Z,3.73
2023-01-13T22:36:35.491Z,3.78
2023-01-13T22:39:04.869Z,3.76
2023-01-13T22:41:32.840Z,3.84
2023-01-13T22:44:00.701Z,3.92
2023-01-13T22:46:28.847Z,3.93
2023-01-13T22:48:56.878Z,3.91
2023-01-13T22:51:26.676Z,3.86
2023-01-13T22:53:55.015Z,3.86
2023-01-13T22:56:24.812Z,3.91
2023-01-13T22:58:54.777Z,3.92
2023-01-13T23:01:24.004Z,3.87
2023-01-13T23:03:52.190Z,3.87
2023-01-13T23:06:22.037Z,3.85
2023-01-13T23:08:50.710Z,3.79
2023-01-13T23:11:20.582Z,3.76
2023-01-13T23:13:48.415Z,3.75
2023-01-13T23:16:21.412Z,3.72
2023-01-13T23:18:50.118Z,3.69
2023-01-13T23:21:21.073Z,3.75
2023-01-13T23:23:49.621Z,3.74
2023-01-13T23:26:18.398Z,3.75
2023-01-13T23:28:47.067Z,3.75
2023-01-13T23:31:18.254Z,3.76
2023-01-13T23:33:47.426Z,3.74
2023-01-13T23:36:18.572Z,3.72
2023-01-13T23:38:46.376Z,3.76
2023-01-13T23:41:17.122Z,3.81
2023-01-13T23:43:53.847Z,3.85
2023-01-13T23:46:22.259Z,3.83
2023-01-13T23:48:50.903Z,3.82
2023-01-13T23:51:21.433Z,3.82
2023-01-13T23:53:50.997Z,3.82
2023-01-13T23:56:24.969Z,3.81
2023-01-13T23:58:54.060Z,3.83
